KBGD/BGD METAR and TAF weather

Enter ICAO airport designator
Station Type Date Time Source
KBGD METAR 2018/04/27 00:51 UTC NOAA

KBGD 270051Z AUTO 01022G31KT 10SM CLR 17/02 A3009 RMK AO2 PK WND 01032/0027 SLP176 T01720017


Station Type Date Time Source
KBGD Decoded METAR 2018/04/27 00:51 UTC NOAA

BORGER HUTCHINSON CO AIRPORT , TX, United States (KBGD) 35-42N 101-24W 927M
Apr 26, 2018 - 08:51 PM EDT / 2018.04.27 0051 UTC
Wind: from the N (010 degrees) at 25 MPH (22 KT) gusting to 36 MPH (31 KT):0
Visibility: 10 mile(s):0
Sky conditions: clear
Temperature: 63.0 F (17.2 C)
Dew Point: 35.1 F (1.7 C)
Relative Humidity: 35%
Pressure (altimeter): 30.09 in. Hg (1018 hPa)
ob: KBGD 270051Z AUTO 01022G31KT 10SM CLR 17/02 A3009 RMK AO2 PK WND 01032/0027 SLP176 T01720017
cycle: 1

Station Type Date Time Source
KBGD TAF UTC NOAA

Error!


Example: see airport list